createdAt,value
2018-02-08T00:00:29.180Z,38.83
2018-02-08T00:01:35.084Z,42.58
2018-02-08T00:02:41.559Z,41.25
2018-02-08T00:03:47.276Z,40.20
2018-02-08T00:04:53.759Z,39.40
2018-02-08T00:05:59.499Z,40.63
2018-02-08T00:07:05.220Z,38.53
2018-02-08T00:08:11.711Z,42.97
2018-02-08T00:09:17.413Z,41.55
2018-02-08T00:10:23.905Z,40.60
2018-02-08T00:11:29.863Z,38.33
2018-02-08T00:12:35.588Z,38.97
2018-02-08T00:13:41.312Z,37.53
2018-02-08T00:14:47.851Z,39.05
2018-02-08T00:15:53.740Z,40.00
2018-02-08T00:16:59.468Z,43.75
2018-02-08T00:18:05.186Z,40.75
2018-02-08T00:19:11.687Z,40.30
2018-02-08T00:20:17.393Z,38.60
2018-02-08T00:21:23.872Z,39.15
2018-02-08T00:22:45.249Z,39.90
2018-02-08T00:23:51.753Z,38.70
2018-02-08T00:24:57.473Z,38.75
2018-02-08T00:26:03.191Z,40.30
2018-02-08T00:27:09.693Z,40.63
2018-02-08T00:28:15.432Z,38.30
2018-02-08T00:29:21.160Z,37.25
2018-02-08T00:30:26.875Z,40.55
2018-02-08T00:31:33.387Z,38.85
2018-02-08T00:32:39.932Z,39.65
2018-02-08T00:33:45.679Z,38.85
2018-02-08T00:34:51.399Z,40.42
2018-02-08T00:35:57.122Z,48.92
2018-02-08T00:37:04.011Z,47.05
2018-02-08T00:38:09.726Z,48.05
2018-02-08T00:39:16.246Z,44.97
2018-02-08T00:40:21.963Z,44.85
2018-02-08T00:41:27.688Z,43.47
2018-02-08T00:42:33.417Z,37.88
2018-02-08T00:43:39.152Z,40.58
2018-02-08T00:44:45.672Z,41.83
2018-02-08T00:45:51.387Z,41.45
2018-02-08T00:46:57.106Z,40.40
2018-02-08T00:48:03.584Z,39.22
2018-02-08T00:49:09.317Z,41.92
2018-02-08T00:50:15.041Z,41.05
2018-02-08T00:51:20.768Z,39.80
2018-02-08T00:52:27.264Z,38.50
2018-02-08T00:53:32.998Z,38.65
2018-02-08T00:54:38.711Z,39.03
2018-02-08T00:55:45.224Z,39.92
2018-02-08T00:56:50.946Z,39.42
2018-02-08T00:57:56.672Z,39.22
2018-02-08T00:59:03.152Z,39.90
2018-02-08T01:00:08.873Z,39.67
2018-02-08T01:01:14.627Z,39.22
2018-02-08T01:02:20.336Z,37.72
2018-02-08T01:03:26.825Z,37.03
2018-02-08T01:04:32.550Z,38.00
2018-02-08T01:05:38.267Z,37.00
2018-02-08T01:06:44.780Z,37.85
2018-02-08T01:07:50.509Z,36.15
2018-02-08T01:08:56.243Z,37.75
2018-02-08T01:10:01.960Z,37.05
2018-02-08T01:11:07.696Z,38.97
2018-02-08T01:12:14.208Z,36.60
2018-02-08T01:13:19.932Z,39.05
2018-02-08T01:14:25.651Z,37.03
2018-02-08T01:15:31.369Z,39.22
2018-02-08T01:16:37.856Z,33.83
2018-02-08T01:17:43.599Z,37.92
2018-02-08T01:18:49.320Z,38.40
2018-02-08T01:19:55.049Z,36.35
2018-02-08T01:21:01.540Z,38.28
2018-02-08T01:22:07.264Z,37.63
2018-02-08T01:23:13.022Z,36.03
2018-02-08T01:24:18.753Z,35.88
2018-02-08T01:25:24.476Z,38.60
2018-02-08T01:26:30.964Z,38.15
2018-02-08T01:27:36.689Z,35.35
2018-02-08T01:28:42.450Z,37.38
2018-02-08T01:29:48.177Z,34.85
2018-02-08T01:30:53.883Z,38.03
2018-02-08T01:31:59.608Z,37.08
2018-02-08T01:33:05.317Z,39.58
2018-02-08T01:34:11.061Z,37.05
2018-02-08T01:35:16.787Z,39.17
2018-02-08T01:36:22.503Z,38.25
2018-02-08T01:37:28.996Z,39.03
2018-02-08T01:38:34.723Z,37.38
2018-02-08T01:39:40.508Z,36.75
2018-02-08T01:40:46.231Z,37.08
2018-02-08T01:41:51.950Z,33.15
2018-02-08T01:42:57.672Z,36.53
2018-02-08T01:44:04.181Z,34.92
2018-02-08T01:45:09.916Z,37.95
2018-02-08T01:46:15.640Z,36.00
2018-02-08T01:47:21.369Z,38.58
2018-02-08T01:48:27.102Z,36.55
2018-02-08T01:49:46.857Z,38.20
2018-02-08T01:50:53.360Z,35.35
2018-02-08T01:51:59.139Z,37.47
2018-02-08T01:53:04.863Z,39.25
2018-02-08T01:54:10.592Z,37.60
2018-02-08T01:55:16.309Z,36.42
2018-02-08T01:56:22.059Z,39.65
2018-02-08T01:57:27.787Z,35.60
2018-02-08T01:58:33.508Z,37.30
2018-02-08T01:59:40.288Z,36.70
2018-02-08T02:00:46.448Z,36.88
2018-02-08T02:01:52.199Z,38.45
2018-02-08T02:02:57.945Z,34.80
2018-02-08T02:04:03.419Z,38.78
2018-02-08T02:05:09.141Z,34.60
2018-02-08T02:06:14.868Z,38.10
2018-02-08T02:07:20.616Z,36.60
2018-02-08T02:08:26.347Z,38.05
2018-02-08T02:09:32.068Z,34.28
2018-02-08T02:10:37.775Z,39.97
2018-02-08T02:11:44.281Z,35.25
2018-02-08T02:12:50.095Z,37.60
2018-02-08T02:13:56.575Z,37.72
2018-02-08T02:15:02.296Z,39.50
2018-02-08T02:16:08.019Z,37.30
2018-02-08T02:17:14.512Z,36.65
2018-02-08T02:18:20.304Z,37.80
2018-02-08T02:19:25.523Z,35.70
2018-02-08T02:20:31.259Z,37.15
2018-02-08T02:21:36.972Z,38.45
2018-02-08T02:22:42.709Z,37.72
2018-02-08T02:23:48.453Z,37.75
2018-02-08T02:24:54.179Z,42.38
2018-02-08T02:25:59.912Z,39.28
2018-02-08T02:27:05.637Z,37.28
2018-02-08T02:28:12.117Z,37.85
2018-02-08T02:29:17.862Z,37.65
2018-02-08T02:30:23.585Z,38.42
2018-02-08T02:31:29.309Z,36.67
2018-02-08T02:32:35.809Z,36.08
2018-02-08T02:33:41.528Z,37.10
2018-02-08T02:34:48.035Z,37.40
2018-02-08T02:35:53.559Z,36.10
2018-02-08T02:36:59.265Z,40.45
2018-02-08T02:38:04.660Z,35.53
2018-02-08T02:39:10.393Z,37.92
2018-02-08T02:40:16.139Z,36.22
2018-02-08T02:41:21.875Z,37.63
2018-02-08T02:42:27.587Z,30.85
2018-02-08T02:43:33.369Z,37.42
2018-02-08T02:44:39.851Z,36.00
2018-02-08T02:45:46.380Z,36.45
2018-02-08T02:46:52.125Z,37.78
2018-02-08T02:47:59.344Z,38.67
2018-02-08T02:49:05.078Z,37.15
2018-02-08T02:50:11.569Z,38.85
2018-02-08T02:51:17.312Z,37.40
2018-02-08T02:52:23.039Z,39.85
2018-02-08T02:53:28.765Z,37.45
2018-02-08T02:54:34.298Z,38.30
2018-02-08T02:55:40.028Z,40.80
2018-02-08T02:56:46.541Z,33.45
2018-02-08T02:57:52.260Z,38.22
2018-02-08T02:58:57.985Z,37.95
2018-02-08T03:00:03.281Z,38.00
2018-02-08T03:01:09.031Z,37.80
2018-02-08T03:02:14.768Z,36.80
2018-02-08T03:03:21.256Z,36.97
2018-02-08T03:04:26.983Z,38.47
2018-02-08T03:05:33.481Z,38.25
2018-02-08T03:06:39.180Z,38.20
2018-02-08T03:07:45.691Z,34.78
2018-02-08T03:08:51.433Z,36.83
2018-02-08T03:09:57.147Z,36.85
2018-02-08T03:11:02.879Z,37.90
2018-02-08T03:12:08.597Z,35.20
2018-02-08T03:13:15.118Z,37.75
2018-02-08T03:14:20.827Z,36.53
2018-02-08T03:15:26.553Z,37.70
2018-02-08T03:16:33.052Z,40.22
2018-02-08T03:17:38.776Z,37.22
2018-02-08T03:18:44.522Z,37.15
2018-02-08T03:19:50.252Z,40.12
2018-02-08T03:20:55.987Z,39.38
2018-02-08T03:22:01.688Z,36.95
2018-02-08T03:23:07.076Z,37.40
2018-02-08T03:24:13.587Z,37.22
2018-02-08T03:25:20.085Z,37.50
2018-02-08T03:26:25.812Z,38.50
2018-02-08T03:27:31.534Z,38.88
2018-02-08T03:28:38.043Z,38.13
2018-02-08T03:29:43.617Z,37.15
2018-02-08T03:30:54.613Z,38.05
2018-02-08T03:32:00.460Z,35.70
2018-02-08T03:33:06.179Z,40.70
2018-02-08T03:34:12.671Z,38.17
2018-02-08T03:35:18.428Z,37.75
2018-02-08T03:36:24.151Z,39.40
2018-02-08T03:37:29.880Z,41.05
2018-02-08T03:38:35.625Z,39.17
2018-02-08T03:39:41.335Z,38.90
2018-02-08T03:40:47.075Z,40.03
2018-02-08T03:41:53.566Z,38.53
2018-02-08T03:43:00.058Z,39.40
2018-02-08T03:44:05.767Z,39.00
2018-02-08T03:45:11.495Z,40.90
2018-02-08T03:46:18.008Z,39.75
2018-02-08T03:47:23.728Z,37.58
2018-02-08T03:48:29.443Z,40.90
2018-02-08T03:49:35.165Z,41.97
2018-02-08T03:50:41.651Z,40.80
2018-02-08T03:51:47.391Z,39.55
2018-02-08T03:52:53.112Z,39.40
2018-02-08T03:53:58.835Z,39.08
2018-02-08T03:55:05.003Z,37.25
2018-02-08T03:56:11.527Z,39.15
2018-02-08T03:57:17.445Z,39.38
2018-02-08T03:58:22.836Z,38.83
2018-02-08T03:59:29.328Z,38.38
2018-02-08T04:00:35.055Z,37.20
2018-02-08T04:01:40.772Z,38.40
2018-02-08T04:02:47.279Z,38.05
2018-02-08T04:03:53.017Z,36.28
2018-02-08T04:04:58.788Z,35.35
2018-02-08T04:06:04.517Z,37.60
2018-02-08T04:07:10.236Z,37.88
2018-02-08T04:08:15.983Z,38.40
2018-02-08T04:09:21.716Z,40.38
2018-02-08T04:10:27.436Z,37.85
2018-02-08T04:11:33.160Z,37.03
2018-02-08T04:12:39.645Z,41.80
2018-02-08T04:13:45.448Z,35.65
2018-02-08T04:14:51.954Z,39.42
2018-02-08T04:15:57.830Z,37.85
2018-02-08T04:17:03.555Z,38.08
2018-02-08T04:18:09.311Z,38.63
2018-02-08T04:19:15.060Z,35.45
2018-02-08T04:20:20.793Z,38.53
2018-02-08T04:21:26.514Z,37.35
2018-02-08T04:22:32.242Z,36.65
2018-02-08T04:23:37.978Z,37.28
2018-02-08T04:24:43.715Z,46.10
2018-02-08T04:25:49.460Z,42.22
2018-02-08T04:26:55.179Z,40.00
2018-02-08T04:28:01.670Z,40.12
2018-02-08T04:29:07.389Z,39.67
2018-02-08T04:30:13.142Z,35.15
2018-02-08T04:31:18.864Z,39.38
2018-02-08T04:32:25.339Z,43.67
2018-02-08T04:33:31.088Z,42.90
2018-02-08T04:34:36.797Z,41.60
2018-02-08T04:35:43.311Z,42.45
2018-02-08T04:36:49.040Z,42.90
2018-02-08T04:37:54.782Z,48.17
2018-02-08T04:39:17.430Z,42.42
2018-02-08T04:40:39.975Z,44.33
2018-02-08T04:42:03.397Z,41.60
2018-02-08T04:43:26.083Z,47.05
2018-02-08T04:44:48.452Z,42.40
2018-02-08T04:46:10.896Z,41.28
2018-02-08T04:47:28.456Z,41.15
2018-02-08T04:48:34.192Z,41.22
2018-02-08T04:49:39.900Z,41.92
2018-02-08T04:50:45.633Z,40.97
2018-02-08T04:51:51.364Z,42.88
2018-02-08T04:52:57.104Z,40.67
2018-02-08T04:54:02.857Z,40.40
2018-02-08T04:55:08.780Z,41.13
2018-02-08T04:56:15.272Z,44.85
2018-02-08T04:57:20.987Z,40.75
2018-02-08T04:58:27.493Z,43.55
2018-02-08T04:59:33.208Z,45.15
2018-02-08T05:00:38.936Z,40.10
2018-02-08T05:01:44.459Z,41.47
2018-02-08T05:02:51.468Z,46.80
2018-02-08T05:03:57.206Z,44.10
2018-02-08T05:05:02.923Z,42.42
2018-02-08T05:06:08.637Z,44.22
2018-02-08T05:07:14.351Z,41.45
2018-02-08T05:08:20.064Z,39.72
2018-02-08T05:09:25.821Z,43.00
2018-02-08T05:10:31.543Z,41.72
2018-02-08T05:11:37.267Z,42.50
2018-02-08T05:12:42.979Z,39.15
2018-02-08T05:13:48.760Z,40.45
2018-02-08T05:14:54.656Z,44.53
2018-02-08T05:16:01.142Z,41.37
2018-02-08T05:17:07.622Z,44.95
2018-02-08T05:18:13.337Z,42.85
2018-02-08T05:19:19.827Z,38.95
2018-02-08T05:20:25.571Z,40.55
2018-02-08T05:21:31.287Z,41.55
2018-02-08T05:22:37.018Z,43.08
2018-02-08T05:23:43.503Z,41.70
2018-02-08T05:24:49.204Z,42.92
2018-02-08T05:25:54.946Z,42.65
2018-02-08T05:27:00.666Z,44.50
2018-02-08T05:28:06.384Z,40.60
2018-02-08T05:29:12.107Z,43.63
2018-02-08T05:30:17.825Z,43.47
2018-02-08T05:31:24.147Z,43.28
2018-02-08T05:32:29.877Z,39.78
2018-02-08T05:33:35.606Z,41.60
2018-02-08T05:34:41.333Z,40.60
2018-02-08T05:35:47.045Z,40.90
2018-02-08T05:36:52.795Z,39.42
2018-02-08T05:37:58.523Z,40.30
2018-02-08T05:39:03.924Z,40.28
2018-02-08T05:40:09.637Z,41.40
2018-02-08T05:41:15.350Z,42.33
2018-02-08T05:42:21.087Z,43.35
2018-02-08T05:43:26.813Z,42.22
2018-02-08T05:44:32.521Z,39.78
2018-02-08T05:45:39.004Z,43.03
2018-02-08T05:46:45.246Z,40.22
2018-02-08T05:47:50.983Z,41.45
2018-02-08T05:48:56.699Z,40.55
2018-02-08T05:50:02.412Z,43.05
2018-02-08T05:51:08.147Z,40.47
2018-02-08T05:52:13.877Z,40.30
2018-02-08T05:53:20.371Z,40.88
2018-02-08T05:54:25.902Z,41.75
2018-02-08T05:55:31.616Z,42.03
2018-02-08T05:56:37.343Z,41.67
2018-02-08T05:57:43.831Z,39.95
2018-02-08T05:58:49.592Z,42.92
2018-02-08T05:59:55.308Z,42.47
2018-02-08T06:01:01.016Z,41.17
2018-02-08T06:02:10.435Z,40.40
2018-02-08T06:03:16.907Z,42.97
2018-02-08T06:04:23.424Z,40.15
2018-02-08T06:05:29.152Z,45.40
2018-02-08T06:06:34.595Z,75.80
2018-02-08T06:07:40.320Z,85.45
2018-02-08T06:08:46.809Z,56.17
2018-02-08T06:09:52.557Z,59.13
2018-02-08T06:10:59.048Z,47.33
2018-02-08T06:12:04.827Z,52.38
2018-02-08T06:13:10.551Z,48.47
2018-02-08T06:14:16.272Z,48.22
2018-02-08T06:15:22.039Z,42.80
2018-02-08T06:16:27.756Z,43.83
2018-02-08T06:17:34.231Z,43.60
2018-02-08T06:18:39.959Z,42.88
2018-02-08T06:19:45.691Z,42.75
2018-02-08T06:20:52.225Z,40.78
2018-02-08T06:21:57.935Z,43.97
2018-02-08T06:23:03.676Z,42.15
2018-02-08T06:24:09.411Z,40.70
2018-02-08T06:25:15.129Z,41.47
2018-02-08T06:26:20.899Z,42.33
2018-02-08T06:27:26.603Z,41.72
2018-02-08T06:28:33.135Z,43.28
2018-02-08T06:29:39.036Z,43.65
2018-02-08T06:30:44.776Z,40.22
2018-02-08T06:31:50.523Z,39.05
2018-02-08T06:32:56.242Z,40.88
2018-02-08T06:34:01.960Z,42.15
2018-02-08T06:35:08.453Z,41.45
2018-02-08T06:36:14.169Z,42.35
2018-02-08T06:37:19.913Z,40.25
2018-02-08T06:38:25.875Z,42.75
2018-02-08T06:39:31.600Z,40.20
2018-02-08T06:40:37.331Z,40.83
2018-02-08T06:41:43.828Z,41.25
2018-02-08T06:42:49.984Z,41.50
2018-02-08T06:43:55.703Z,41.92
2018-02-08T06:45:01.430Z,41.65
2018-02-08T06:46:07.915Z,44.20
2018-02-08T06:47:14.152Z,42.50
2018-02-08T06:48:20.649Z,41.45
2018-02-08T06:49:26.359Z,44.35
2018-02-08T06:50:32.087Z,41.37
2018-02-08T06:51:37.791Z,43.00
2018-02-08T06:52:43.538Z,42.13
2018-02-08T06:53:49.280Z,42.30
2018-02-08T06:54:55.782Z,41.95
2018-02-08T06:56:01.560Z,43.90
2018-02-08T06:57:07.273Z,43.25
2018-02-08T06:58:13.020Z,40.72
2018-02-08T06:59:18.955Z,43.08
2018-02-08T07:00:24.688Z,41.17
2018-02-08T07:01:30.419Z,43.95
2018-02-08T07:02:36.147Z,43.50
2018-02-08T07:03:42.623Z,43.05
2018-02-08T07:04:48.366Z,42.30
2018-02-08T07:05:54.079Z,43.87
2018-02-08T07:07:00.572Z,43.28
2018-02-08T07:08:06.301Z,44.40
2018-02-08T07:09:12.025Z,42.70
2018-02-08T07:10:18.350Z,42.03
2018-02-08T07:11:24.071Z,41.97
2018-02-08T07:12:29.803Z,41.65
2018-02-08T07:13:35.522Z,41.72
2018-02-08T07:14:41.265Z,41.13
2018-02-08T07:15:47.014Z,42.92
2018-02-08T07:16:52.501Z,42.08
2018-02-08T07:17:58.265Z,45.15
2018-02-08T07:19:04.136Z,44.00
2018-02-08T07:20:12.930Z,44.20
2018-02-08T07:21:19.435Z,45.33
2018-02-08T07:22:25.143Z,42.38
2018-02-08T07:23:30.876Z,45.00
2018-02-08T07:24:36.607Z,43.42
2018-02-08T07:25:42.348Z,44.72
2018-02-08T07:26:48.096Z,45.30
2018-02-08T07:27:53.825Z,43.53
2018-02-08T07:29:00.309Z,43.42
2018-02-08T07:30:05.378Z,40.75
2018-02-08T07:31:11.104Z,44.33
2018-02-08T07:32:16.835Z,45.60
2018-02-08T07:33:22.556Z,45.30
2018-02-08T07:34:28.462Z,43.92
2018-02-08T07:35:34.952Z,45.72
2018-02-08T07:36:40.672Z,45.38
2018-02-08T07:37:47.192Z,43.03
2018-02-08T07:38:52.907Z,45.58
2018-02-08T07:39:58.419Z,42.85
2018-02-08T07:41:04.177Z,43.30
2018-02-08T07:42:09.896Z,43.45
2018-02-08T07:43:15.647Z,45.50
2018-02-08T07:44:22.127Z,43.05
2018-02-08T07:45:27.861Z,43.35
2018-02-08T07:46:33.623Z,44.53
2018-02-08T07:47:39.455Z,44.60
2018-02-08T07:48:45.196Z,43.78
2018-02-08T07:49:50.916Z,44.70
2018-02-08T07:50:56.632Z,43.03
2018-02-08T07:52:03.447Z,44.33
2018-02-08T07:53:09.204Z,44.63
2018-02-08T07:54:14.987Z,44.38
2018-02-08T07:55:21.689Z,43.75
2018-02-08T07:56:27.594Z,46.15
2018-02-08T07:57:34.318Z,44.00
2018-02-08T07:58:40.234Z,43.87
2018-02-08T07:59:46.135Z,44.65
2018-02-08T08:00:52.666Z,46.17
2018-02-08T08:01:58.783Z,44.78
2018-02-08T08:03:04.738Z,45.75
2018-02-08T08:04:10.709Z,45.10
2018-02-08T08:05:17.251Z,44.58
2018-02-08T08:06:23.082Z,46.15
2018-02-08T08:07:28.976Z,47.85
2018-02-08T08:08:35.783Z,46.95
2018-02-08T08:09:41.542Z,48.35
2018-02-08T08:10:47.561Z,45.38
2018-02-08T08:11:53.828Z,45.70
2018-02-08T08:12:59.773Z,44.75
2018-02-08T08:14:05.665Z,47.13
2018-02-08T08:15:12.706Z,42.60
2018-02-08T08:16:18.993Z,43.47
2018-02-08T08:17:25.804Z,47.10
2018-02-08T08:18:31.871Z,44.83
2018-02-08T08:19:37.756Z,44.45
2018-02-08T08:20:46.725Z,46.75
2018-02-08T08:21:52.704Z,46.63
2018-02-08T08:22:58.952Z,44.38
2018-02-08T08:24:04.891Z,45.55
2018-02-08T08:25:10.890Z,46.30
2018-02-08T08:26:17.588Z,48.72
2018-02-08T08:27:23.555Z,46.67
2018-02-08T08:28:30.347Z,45.40
2018-02-08T08:29:37.183Z,42.80
2018-02-08T08:30:43.820Z,45.28
2018-02-08T08:31:49.534Z,44.22
2018-02-08T08:32:55.284Z,44.53
2018-02-08T08:34:01.264Z,44.05
2018-02-08T08:35:07.156Z,45.35
2018-02-08T08:36:14.019Z,44.28
2018-02-08T08:37:21.256Z,45.12
2018-02-08T08:38:26.927Z,46.13
2018-02-08T08:39:33.709Z,43.50
2018-02-08T08:40:40.504Z,43.75
2018-02-08T08:41:46.358Z,42.80
2018-02-08T08:42:53.420Z,45.00
2018-02-08T08:43:59.471Z,40.63
2018-02-08T08:45:05.239Z,46.08
2018-02-08T08:46:10.839Z,44.70
2018-02-08T08:47:16.741Z,43.60
2018-02-08T08:48:22.726Z,45.90
2018-02-08T08:49:28.788Z,45.83
2018-02-08T08:50:34.845Z,47.40
2018-02-08T08:51:41.705Z,48.38
2018-02-08T08:52:47.439Z,48.08
2018-02-08T08:53:53.395Z,46.00
2018-02-08T08:54:59.268Z,46.60
2018-02-08T08:56:04.937Z,44.75
2018-02-08T08:57:11.539Z,43.97
2018-02-08T08:58:17.353Z,44.42
2018-02-08T08:59:23.939Z,47.22
2018-02-08T09:00:30.081Z,46.20
2018-02-08T09:01:35.977Z,48.13
2018-02-08T09:02:42.300Z,48.92
2018-02-08T09:03:47.746Z,47.15
2018-02-08T09:04:53.772Z,45.15
2018-02-08T09:05:59.684Z,44.78
2018-02-08T09:07:06.380Z,46.63
2018-02-08T09:08:12.541Z,43.95
2018-02-08T09:09:18.399Z,44.25
2018-02-08T09:10:24.530Z,45.25
2018-02-08T09:11:30.538Z,43.90
2018-02-08T09:12:37.347Z,45.10
2018-02-08T09:13:43.253Z,44.45
2018-02-08T09:14:49.557Z,46.88
2018-02-08T09:15:55.577Z,46.83
2018-02-08T09:17:01.361Z,45.00
2018-02-08T09:18:07.086Z,46.88
2018-02-08T09:19:12.816Z,44.17
2018-02-08T09:20:18.524Z,44.58
2018-02-08T09:21:25.006Z,44.92
2018-02-08T09:22:30.738Z,45.08
2018-02-08T09:23:37.224Z,46.40
2018-02-08T09:24:42.929Z,45.30
2018-02-08T09:25:49.194Z,45.08
2018-02-08T09:26:55.660Z,44.75
2018-02-08T09:28:01.392Z,44.58
2018-02-08T09:29:07.270Z,44.22
2018-02-08T09:30:13.294Z,44.95
2018-02-08T09:31:19.321Z,44.78
2018-02-08T09:32:25.285Z,45.80
2018-02-08T09:33:31.411Z,44.60
2018-02-08T09:34:38.122Z,47.58
2018-02-08T09:35:44.115Z,46.92
2018-02-08T09:36:50.271Z,46.78
2018-02-08T09:37:57.423Z,48.13
2018-02-08T09:39:03.548Z,43.10
2018-02-08T09:40:08.936Z,45.10
2018-02-08T09:41:15.420Z,47.00
2018-02-08T09:42:21.222Z,46.90
2018-02-08T09:43:26.943Z,44.80
2018-02-08T09:44:32.817Z,45.53
2018-02-08T09:45:39.296Z,48.50
2018-02-08T09:46:45.124Z,46.75
2018-02-08T09:47:52.336Z,46.35
2018-02-08T09:48:58.243Z,43.50
2018-02-08T09:50:04.762Z,45.75
2018-02-08T09:51:10.970Z,48.45
2018-02-08T09:52:16.686Z,47.72
2018-02-08T09:53:22.388Z,46.60
2018-02-08T09:54:28.128Z,47.62
2018-02-08T09:55:33.872Z,47.33
2018-02-08T09:56:39.578Z,50.67
2018-02-08T09:57:45.300Z,45.67
2018-02-08T09:58:51.786Z,48.25
2018-02-08T09:59:57.488Z,45.33
2018-02-08T10:01:04.076Z,44.55
2018-02-08T10:02:09.781Z,47.08
2018-02-08T10:03:15.508Z,47.05
2018-02-08T10:04:21.226Z,45.50
2018-02-08T10:05:26.941Z,47.30
2018-02-08T10:06:32.679Z,45.97
2018-02-08T10:07:38.524Z,45.03
2018-02-08T10:08:44.225Z,47.00
2018-02-08T10:09:49.937Z,45.22
2018-02-08T10:10:55.459Z,46.80
2018-02-08T10:12:01.197Z,45.75
2018-02-08T10:13:06.788Z,44.95
2018-02-08T10:14:12.492Z,46.63
2018-02-08T10:15:18.018Z,46.72
2018-02-08T10:16:23.772Z,45.53
2018-02-08T10:17:29.521Z,44.25
2018-02-08T10:18:35.291Z,47.83
2018-02-08T10:19:41.784Z,46.80
2018-02-08T10:20:47.488Z,46.17
2018-02-08T10:21:53.959Z,47.72
2018-02-08T10:22:59.691Z,46.20
2018-02-08T10:24:06.171Z,46.88
2018-02-08T10:25:12.120Z,45.75
2018-02-08T10:26:17.852Z,50.53
2018-02-08T10:27:23.560Z,48.97
2018-02-08T10:28:29.296Z,48.53
2018-02-08T10:29:35.004Z,46.22
2018-02-08T10:30:40.703Z,48.40
2018-02-08T10:31:47.183Z,49.55
2018-02-08T10:32:52.906Z,46.00
2018-02-08T10:33:59.434Z,47.22
2018-02-08T10:35:05.367Z,46.22
2018-02-08T10:36:11.547Z,47.92
2018-02-08T10:37:18.147Z,50.33
2018-02-08T10:38:24.878Z,49.88
2018-02-08T10:39:30.854Z,48.22
2018-02-08T10:40:36.909Z,48.15
2018-02-08T10:41:42.894Z,48.25
2018-02-08T10:42:49.827Z,45.88
2018-02-08T10:43:55.784Z,48.50
2018-02-08T10:45:01.712Z,47.83
2018-02-08T10:46:07.654Z,47.83
2018-02-08T10:47:13.599Z,49.67
2018-02-08T10:48:19.540Z,50.10
2018-02-08T10:49:25.492Z,51.25
2018-02-08T10:50:31.625Z,49.50
2018-02-08T10:51:37.688Z,47.65
2018-02-08T10:52:43.721Z,49.25
2018-02-08T10:53:49.699Z,48.70
2018-02-08T10:54:55.610Z,48.25
2018-02-08T10:56:03.409Z,50.08
2018-02-08T10:57:09.570Z,50.63
2018-02-08T10:58:15.304Z,50.75
2018-02-08T10:59:21.677Z,49.53
2018-02-08T11:00:27.633Z,51.33
2018-02-08T11:01:33.766Z,49.13
2018-02-08T11:02:39.787Z,51.58
2018-02-08T11:03:46.245Z,49.83
2018-02-08T11:04:52.302Z,49.65
2018-02-08T11:05:58.281Z,53.65
2018-02-08T11:07:04.516Z,50.53
2018-02-08T11:08:10.343Z,49.80
2018-02-08T11:09:17.075Z,53.38
2018-02-08T11:10:25.640Z,51.45
2018-02-08T11:11:31.584Z,53.63
2018-02-08T11:12:37.342Z,52.60
2018-02-08T11:13:44.091Z,52.90
2018-02-08T11:14:50.140Z,49.92
2018-02-08T11:15:56.153Z,49.75
2018-02-08T11:17:02.832Z,51.30
2018-02-08T11:18:09.695Z,53.00
2018-02-08T11:19:15.728Z,51.60
2018-02-08T11:20:22.378Z,50.97
2018-02-08T11:21:28.405Z,52.15
2018-02-08T11:22:34.356Z,51.10
2018-02-08T11:23:40.362Z,52.88
2018-02-08T11:24:46.311Z,53.85
2018-02-08T11:25:52.333Z,53.95
2018-02-08T11:26:58.330Z,52.10
2018-02-08T11:28:04.272Z,50.20
2018-02-08T11:29:10.405Z,52.60
2018-02-08T11:30:16.263Z,50.80
2018-02-08T11:31:22.105Z,51.45
2018-02-08T11:32:28.241Z,52.17
2018-02-08T11:33:34.191Z,51.35
2018-02-08T11:34:40.123Z,53.20
2018-02-08T11:35:46.963Z,51.28
2018-02-08T11:36:53.771Z,50.72
2018-02-08T11:37:59.911Z,49.25
2018-02-08T11:39:05.153Z,52.65
2018-02-08T11:40:11.458Z,53.28
2018-02-08T11:41:17.275Z,53.38
2018-02-08T11:42:23.219Z,52.25
2018-02-08T11:43:29.162Z,50.45
2018-02-08T11:44:35.079Z,51.45
2018-02-08T11:45:41.029Z,52.50
2018-02-08T11:46:46.965Z,52.28
2018-02-08T11:47:52.925Z,53.40
2018-02-08T11:48:58.857Z,51.80
2018-02-08T11:50:04.452Z,53.70
2018-02-08T11:51:11.313Z,53.35
2018-02-08T11:52:17.031Z,51.90
2018-02-08T11:53:22.635Z,49.72
2018-02-08T11:54:30.018Z,50.72
2018-02-08T11:55:36.075Z,51.85
2018-02-08T11:56:42.034Z,58.92
2018-02-08T11:57:47.768Z,52.50
2018-02-08T11:58:53.528Z,51.25
2018-02-08T11:59:59.245Z,50.50
2018-02-08T12:01:04.979Z,49.28
2018-02-08T12:02:10.703Z,51.20
2018-02-08T12:03:17.183Z,50.15
2018-02-08T12:04:22.899Z,52.25
2018-02-08T12:05:29.390Z,49.85
2018-02-08T12:06:35.156Z,52.40
2018-02-08T12:07:40.894Z,51.35
2018-02-08T12:08:46.621Z,53.03
2018-02-08T12:09:52.343Z,51.50
2018-02-08T12:10:58.065Z,51.30
2018-02-08T12:12:04.586Z,55.22
2018-02-08T12:13:10.513Z,52.53
2018-02-08T12:14:16.219Z,53.03
2018-02-08T12:15:23.070Z,52.38
2018-02-08T12:16:29.656Z,51.28
2018-02-08T12:17:36.137Z,52.15
2018-02-08T12:18:41.873Z,51.78
2018-02-08T12:19:47.585Z,53.00
2018-02-08T12:20:54.089Z,54.67
2018-02-08T12:21:59.850Z,49.83
2018-02-08T12:23:05.229Z,51.75
2018-02-08T12:24:11.006Z,48.72
2018-02-08T12:25:16.756Z,50.17
2018-02-08T12:26:22.476Z,48.35
2018-02-08T12:27:28.186Z,50.53
2018-02-08T12:28:34.700Z,48.10
2018-02-08T12:29:40.451Z,48.87
2018-02-08T12:30:46.217Z,47.13
2018-02-08T12:31:52.766Z,45.72
2018-02-08T12:32:58.661Z,49.15
2018-02-08T12:34:04.142Z,49.28
2018-02-08T12:35:09.888Z,47.08
2018-02-08T12:36:16.370Z,44.67
2018-02-08T12:37:22.860Z,43.87
2018-02-08T12:38:28.660Z,47.08
2018-02-08T12:39:35.143Z,44.00
2018-02-08T12:40:40.882Z,45.35
2018-02-08T12:41:46.613Z,41.92
2018-02-08T12:42:53.087Z,40.75
2018-02-08T12:43:58.502Z,38.95
2018-02-08T12:45:04.658Z,37.00
2018-02-08T12:46:11.157Z,38.03
2018-02-08T12:47:16.763Z,41.63
2018-02-08T12:48:22.477Z,42.83
2018-02-08T12:49:28.989Z,40.95
2018-02-08T12:50:34.697Z,42.85
2018-02-08T12:51:40.457Z,41.88
2018-02-08T12:52:46.181Z,38.40
2018-02-08T12:53:51.915Z,38.85
2018-02-08T12:54:58.388Z,36.38
2018-02-08T12:56:04.129Z,38.78
2018-02-08T12:57:09.875Z,42.10
2018-02-08T12:58:15.614Z,39.33
2018-02-08T12:59:21.333Z,36.53
2018-02-08T13:00:27.876Z,35.17
2018-02-08T13:01:33.642Z,35.00
2018-02-08T13:02:40.123Z,36.17
2018-02-08T13:03:45.840Z,37.10
2018-02-08T13:04:52.308Z,35.15
2018-02-08T13:05:58.009Z,35.95
2018-02-08T13:07:03.711Z,36.40
2018-02-08T13:08:09.901Z,37.72
2018-02-08T13:09:17.295Z,37.78
2018-02-08T13:10:23.317Z,35.08
2018-02-08T13:11:29.211Z,38.70
2018-02-08T13:12:34.983Z,37.90
2018-02-08T13:13:40.883Z,36.45
2018-02-08T13:14:47.561Z,34.38
2018-02-08T13:15:54.404Z,36.97
2018-02-08T13:17:00.335Z,35.80
2018-02-08T13:18:06.791Z,35.47
2018-02-08T13:19:13.538Z,30.45
2018-02-08T13:20:20.263Z,34.10
2018-02-08T13:21:26.213Z,34.33
2018-02-08T13:22:32.175Z,35.75
2018-02-08T13:23:38.353Z,34.33
2018-02-08T13:24:44.738Z,37.50
2018-02-08T13:25:51.295Z,34.90
2018-02-08T13:26:57.716Z,38.20
2018-02-08T13:28:03.718Z,39.20
2018-02-08T13:29:09.598Z,35.80
2018-02-08T13:30:15.599Z,35.80
2018-02-08T13:32:58.070Z,31.58
2018-02-08T13:34:04.668Z,28.83
2018-02-08T13:35:11.490Z,28.15
2018-02-08T13:36:17.339Z,28.62
2018-02-08T13:37:23.277Z,29.37
2018-02-08T13:38:29.139Z,28.33
2018-02-08T13:41:14.771Z,28.52
2018-02-08T13:42:20.853Z,28.80
2018-02-08T13:43:26.603Z,29.48
2018-02-08T13:44:32.816Z,39.50
2018-02-08T13:45:39.333Z,32.17
2018-02-08T13:46:47.913Z,99.82
2018-02-08T13:49:29.820Z,87.47
2018-02-08T13:50:41.329Z,37.58
2018-02-08T13:53:36.429Z,32.13
2018-02-08T13:54:44.549Z,31.45
2018-02-08T13:55:55.788Z,35.53
2018-02-08T13:57:07.068Z,35.97
2018-02-08T13:58:18.917Z,36.60
2018-02-08T13:59:30.983Z,34.95
2018-02-08T14:00:40.490Z,36.85
2018-02-08T14:01:52.198Z,38.15
2018-02-08T14:02:57.945Z,36.08
2018-02-08T14:04:03.914Z,37.22
2018-02-08T14:05:09.871Z,38.67
2018-02-08T14:06:16.699Z,38.60
2018-02-08T14:07:22.665Z,45.50
2018-02-08T14:08:28.597Z,46.00
2018-02-08T14:09:35.328Z,52.60
2018-02-08T14:10:42.878Z,52.90
2018-02-08T14:11:50.428Z,51.53
2018-02-08T14:12:56.323Z,55.83
2018-02-08T14:14:02.192Z,54.92
2018-02-08T14:15:08.108Z,53.53
2018-02-08T14:16:14.078Z,50.88
2018-02-08T14:17:19.998Z,52.97
2018-02-08T14:18:26.022Z,54.20
2018-02-08T14:19:31.790Z,53.92